sensor_id;sensor_type;location;lat;lon;timestamp;pressure;altitude;pressure_sealevel;temperature;humidity
74627;BME280;63132;52.268;5.192;2024-03-22T00:00:56;101910.31;;;15.61;62.68
74627;BME280;63132;52.268;5.192;2024-03-22T00:03:22;101914.00;;;15.50;63.16
74627;BME280;63132;52.268;5.192;2024-03-22T00:05:47;101904.09;;;15.42;63.07
74627;BME280;63132;52.268;5.192;2024-03-22T00:08:13;101900.91;;;15.40;63.74
74627;BME280;63132;52.268;5.192;2024-03-22T00:10:38;101895.25;;;15.47;63.19
74627;BME280;63132;52.268;5.192;2024-03-22T00:13:03;101886.81;;;15.58;62.81
74627;BME280;63132;52.268;5.192;2024-03-22T00:15:29;101882.94;;;15.41;63.76
74627;BME280;63132;52.268;5.192;2024-03-22T00:17:54;101884.38;;;15.12;64.86
74627;BME280;63132;52.268;5.192;2024-03-22T00:20:19;101882.50;;;15.46;63.65
74627;BME280;63132;52.268;5.192;2024-03-22T00:22:45;101871.19;;;15.16;64.95
74627;BME280;63132;52.268;5.192;2024-03-22T00:25:10;101876.97;;;15.43;63.83
74627;BME280;63132;52.268;5.192;2024-03-22T00:27:35;101869.31;;;15.50;63.88
74627;BME280;63132;52.268;5.192;2024-03-22T00:30:00;101853.50;;;15.37;64.50
74627;BME280;63132;52.268;5.192;2024-03-22T00:32:26;101855.38;;;15.47;63.71
74627;BME280;63132;52.268;5.192;2024-03-22T00:34:51;101848.44;;;15.21;65.05
74627;BME280;63132;52.268;5.192;2024-03-22T00:37:17;101840.63;;;15.46;64.05
74627;BME280;63132;52.268;5.192;2024-03-22T00:39:42;101833.75;;;15.62;63.44
74627;BME280;63132;52.268;5.192;2024-03-22T00:42:07;101828.72;;;15.42;64.02
74627;BME280;63132;52.268;5.192;2024-03-22T00:44:33;101822.66;;;15.51;63.45
74627;BME280;63132;52.268;5.192;2024-03-22T00:46:58;101821.22;;;15.36;64.54
74627;BME280;63132;52.268;5.192;2024-03-22T00:49:23;101810.13;;;15.25;65.32
74627;BME280;63132;52.268;5.192;2024-03-22T00:51:49;101823.72;;;15.23;64.63
74627;BME280;63132;52.268;5.192;2024-03-22T00:54:14;101827.09;;;14.96;65.82
74627;BME280;63132;52.268;5.192;2024-03-22T00:56:39;101831.34;;;15.12;65.81
74627;BME280;63132;52.268;5.192;2024-03-22T00:59:05;101829.47;;;15.02;65.65
74627;BME280;63132;52.268;5.192;2024-03-22T01:01:30;101829.38;;;15.12;65.41
74627;BME280;63132;52.268;5.192;2024-03-22T01:03:55;101829.81;;;15.07;65.37
74627;BME280;63132;52.268;5.192;2024-03-22T01:06:20;101829.34;;;15.16;64.86
74627;BME280;63132;52.268;5.192;2024-03-22T01:08:50;101827.66;;;15.26;64.75
74627;BME280;63132;52.268;5.192;2024-03-22T01:11:17;101829.03;;;15.07;64.83
74627;BME280;63132;52.268;5.192;2024-03-22T01:13:42;101831.97;;;15.34;64.02
74627;BME280;63132;52.268;5.192;2024-03-22T01:16:07;101818.97;;;15.16;64.18
74627;BME280;63132;52.268;5.192;2024-03-22T01:18:35;101820.44;;;15.32;63.77
74627;BME280;63132;52.268;5.192;2024-03-22T01:21:00;101816.41;;;15.36;63.36
74627;BME280;63132;52.268;5.192;2024-03-22T01:23:25;101814.63;;;15.12;64.00
74627;BME280;63132;52.268;5.192;2024-03-22T01:25:51;101822.47;;;15.28;63.36
74627;BME280;63132;52.268;5.192;2024-03-22T01:28:16;101808.53;;;15.28;63.51
74627;BME280;63132;52.268;5.192;2024-03-22T01:30:42;101809.34;;;15.24;63.81
74627;BME280;63132;52.268;5.192;2024-03-22T01:33:08;101806.91;;;15.27;63.53
74627;BME280;63132;52.268;5.192;2024-03-22T01:35:33;101807.19;;;14.94;64.83
74627;BME280;63132;52.268;5.192;2024-03-22T01:38:00;101800.59;;;15.19;63.74
74627;BME280;63132;52.268;5.192;2024-03-22T01:40:25;101805.59;;;14.93;64.33
74627;BME280;63132;52.268;5.192;2024-03-22T01:42:56;101797.97;;;15.05;64.59
74627;BME280;63132;52.268;5.192;2024-03-22T01:45:22;101803.63;;;15.39;63.14
74627;BME280;63132;52.268;5.192;2024-03-22T01:47:50;101798.81;;;14.98;64.09
74627;BME280;63132;52.268;5.192;2024-03-22T01:50:15;101809.75;;;14.71;65.03
74627;BME280;63132;52.268;5.192;2024-03-22T01:52:40;101807.25;;;14.87;64.77
74627;BME280;63132;52.268;5.192;2024-03-22T01:55:07;101793.63;;;14.96;64.20
74627;BME280;63132;52.268;5.192;2024-03-22T01:57:33;101799.94;;;15.04;64.10
74627;BME280;63132;52.268;5.192;2024-03-22T01:59:59;101796.75;;;15.06;63.53
74627;BME280;63132;52.268;5.192;2024-03-22T02:02:24;101790.44;;;14.98;64.03
74627;BME280;63132;52.268;5.192;2024-03-22T02:04:51;101791.38;;;15.29;63.13
74627;BME280;63132;52.268;5.192;2024-03-22T02:07:16;101797.72;;;14.81;64.17
74627;BME280;63132;52.268;5.192;2024-03-22T02:09:42;101788.75;;;15.08;63.46
74627;BME280;63132;52.268;5.192;2024-03-22T02:12:08;101786.41;;;15.03;63.57
74627;BME280;63132;52.268;5.192;2024-03-22T02:14:33;101782.75;;;15.13;63.17
74627;BME280;63132;52.268;5.192;2024-03-22T02:16:58;101778.09;;;14.95;63.44
74627;BME280;63132;52.268;5.192;2024-03-22T02:19:24;101782.75;;;15.13;63.09
74627;BME280;63132;52.268;5.192;2024-03-22T02:21:49;101782.28;;;15.18;63.08
74627;BME280;63132;52.268;5.192;2024-03-22T02:24:14;101771.78;;;14.88;63.40
74627;BME280;63132;52.268;5.192;2024-03-22T02:26:40;101772.25;;;14.79;63.93
74627;BME280;63132;52.268;5.192;2024-03-22T02:29:05;101763.13;;;14.75;64.00
74627;BME280;63132;52.268;5.192;2024-03-22T02:31:30;101761.28;;;15.06;63.20
74627;BME280;63132;52.268;5.192;2024-03-22T02:33:57;101757.63;;;15.13;63.01
74627;BME280;63132;52.268;5.192;2024-03-22T02:36:22;101757.78;;;14.95;63.92
74627;BME280;63132;52.268;5.192;2024-03-22T02:38:48;101744.66;;;14.92;64.04
74627;BME280;63132;52.268;5.192;2024-03-22T02:41:13;101736.13;;;15.13;63.19
74627;BME280;63132;52.268;5.192;2024-03-22T02:43:38;101730.00;;;14.84;63.77
74627;BME280;63132;52.268;5.192;2024-03-22T02:46:03;101724.34;;;14.91;63.46
74627;BME280;63132;52.268;5.192;2024-03-22T02:48:29;101721.97;;;14.90;64.05
74627;BME280;63132;52.268;5.192;2024-03-22T02:50:55;101710.66;;;14.63;64.90
74627;BME280;63132;52.268;5.192;2024-03-22T02:53:21;101706.22;;;14.69;64.60
74627;BME280;63132;52.268;5.192;2024-03-22T02:55:46;101700.19;;;14.74;64.07
74627;BME280;63132;52.268;5.192;2024-03-22T02:58:11;101692.03;;;14.53;64.92
74627;BME280;63132;52.268;5.192;2024-03-22T03:00:37;101691.97;;;14.56;64.86
74627;BME280;63132;52.268;5.192;2024-03-22T03:03:06;101684.22;;;14.26;65.95
74627;BME280;63132;52.268;5.192;2024-03-22T03:05:31;101679.41;;;14.30;65.55
74627;BME280;63132;52.268;5.192;2024-03-22T03:07:57;101685.03;;;14.20;66.63
74627;BME280;63132;52.268;5.192;2024-03-22T03:10:22;101690.56;;;14.30;66.30
74627;BME280;63132;52.268;5.192;2024-03-22T03:12:48;101673.09;;;14.19;66.61
74627;BME280;63132;52.268;5.192;2024-03-22T03:15:13;101679.94;;;14.11;66.12
74627;BME280;63132;52.268;5.192;2024-03-22T03:17:38;101674.69;;;14.20;66.43
74627;BME280;63132;52.268;5.192;2024-03-22T03:20:04;101665.25;;;14.59;64.99
74627;BME280;63132;52.268;5.192;2024-03-22T03:22:35;101662.28;;;14.28;65.96
74627;BME280;63132;52.268;5.192;2024-03-22T03:25:00;101658.00;;;14.72;64.73
74627;BME280;63132;52.268;5.192;2024-03-22T03:27:26;101648.25;;;14.43;65.31
74627;BME280;63132;52.268;5.192;2024-03-22T03:29:51;101642.84;;;14.21;65.50
74627;BME280;63132;52.268;5.192;2024-03-22T03:32:16;101646.47;;;14.66;64.17
74627;BME280;63132;52.268;5.192;2024-03-22T03:34:41;101643.44;;;14.54;65.18
74627;BME280;63132;52.268;5.192;2024-03-22T03:37:07;101647.44;;;14.53;64.45
74627;BME280;63132;52.268;5.192;2024-03-22T03:39:32;101633.03;;;14.58;64.58
74627;BME280;63132;52.268;5.192;2024-03-22T03:41:57;101636.16;;;14.63;64.32
74627;BME280;63132;52.268;5.192;2024-03-22T03:44:22;101637.34;;;14.66;64.46
74627;BME280;63132;52.268;5.192;2024-03-22T03:46:48;101627.69;;;14.74;63.83
74627;BME280;63132;52.268;5.192;2024-03-22T03:49:13;101637.94;;;14.39;64.88
74627;BME280;63132;52.268;5.192;2024-03-22T03:51:38;101630.94;;;14.69;64.12
74627;BME280;63132;52.268;5.192;2024-03-22T03:54:04;101640.13;;;14.66;64.12
74627;BME280;63132;52.268;5.192;2024-03-22T03:56:29;101628.59;;;14.64;64.15
74627;BME280;63132;52.268;5.192;2024-03-22T03:58:54;101638.59;;;14.58;64.24
74627;BME280;63132;52.268;5.192;2024-03-22T04:01:20;101636.91;;;14.19;65.28
74627;BME280;63132;52.268;5.192;2024-03-22T04:03:45;101632.66;;;14.56;64.28
74627;BME280;63132;52.268;5.192;2024-03-22T04:06:10;101630.94;;;14.69;63.88
74627;BME280;63132;52.268;5.192;2024-03-22T04:08:36;101620.34;;;14.50;64.59
74627;BME280;63132;52.268;5.192;2024-03-22T04:11:01;101620.34;;;14.50;64.51
74627;BME280;63132;52.268;5.192;2024-03-22T04:13:28;101612.72;;;14.61;63.83
74627;BME280;63132;52.268;5.192;2024-03-22T04:15:53;101624.97;;;14.67;63.56
74627;BME280;63132;52.268;5.192;2024-03-22T04:18:19;101617.19;;;14.44;64.39
74627;BME280;63132;52.268;5.192;2024-03-22T04:20:58;101622.44;;;14.38;64.18
74627;BME280;63132;52.268;5.192;2024-03-22T04:23:25;101629.00;;;14.62;63.64
74627;BME280;63132;52.268;5.192;2024-03-22T04:25:54;101618.28;;;14.61;63.38
74627;BME280;63132;52.268;5.192;2024-03-22T04:28:19;101623.38;;;14.18;64.65
74627;BME280;63132;52.268;5.192;2024-03-22T04:31:00;101619.88;;;14.06;65.17
74627;BME280;63132;52.268;5.192;2024-03-22T04:33:26;101627.38;;;14.68;63.38
74627;BME280;63132;52.268;5.192;2024-03-22T04:35:53;101627.75;;;14.15;64.71
74627;BME280;63132;52.268;5.192;2024-03-22T04:38:18;101616.34;;;14.54;63.54
74627;BME280;63132;52.268;5.192;2024-03-22T04:40:44;101622.66;;;14.62;63.04
74627;BME280;63132;52.268;5.192;2024-03-22T04:43:09;101625.81;;;14.64;63.30
74627;BME280;63132;52.268;5.192;2024-03-22T04:45:34;101619.31;;;14.74;62.97
74627;BME280;63132;52.268;5.192;2024-03-22T04:48:03;101624.78;;;14.47;62.78
74627;BME280;63132;52.268;5.192;2024-03-22T04:50:28;101628.75;;;14.43;63.31
74627;BME280;63132;52.268;5.192;2024-03-22T04:52:54;101621.75;;;14.72;62.64
74627;BME280;63132;52.268;5.192;2024-03-22T04:55:19;101631.06;;;14.55;63.16
74627;BME280;63132;52.268;5.192;2024-03-22T04:57:44;101618.06;;;14.82;62.36
74627;BME280;63132;52.268;5.192;2024-03-22T05:00:10;101623.03;;;14.64;62.48
74627;BME280;63132;52.268;5.192;2024-03-22T05:02:35;101632.94;;;14.68;62.49
74627;BME280;63132;52.268;5.192;2024-03-22T05:05:01;101633.72;;;14.69;62.44
74627;BME280;63132;52.268;5.192;2024-03-22T05:07:26;101626.59;;;14.64;62.35
74627;BME280;63132;52.268;5.192;2024-03-22T05:09:51;101620.53;;;14.25;63.86
74627;BME280;63132;52.268;5.192;2024-03-22T05:12:16;101610.44;;;14.41;63.17
74627;BME280;63132;52.268;5.192;2024-03-22T05:14:42;101614.19;;;14.24;64.20
74627;BME280;63132;52.268;5.192;2024-03-22T05:17:07;101616.03;;;13.86;64.95
74627;BME280;63132;52.268;5.192;2024-03-22T05:19:33;101601.06;;;14.21;64.17
74627;BME280;63132;52.268;5.192;2024-03-22T05:21:58;101608.03;;;13.92;65.00
74627;BME280;63132;52.268;5.192;2024-03-22T05:24:23;101607.06;;;13.57;66.15
74627;BME280;63132;52.268;5.192;2024-03-22T05:26:49;101601.13;;;13.48;66.24
74627;BME280;63132;52.268;5.192;2024-03-22T05:29:14;101588.25;;;13.79;65.23
74627;BME280;63132;52.268;5.192;2024-03-22T05:31:46;101591.31;;;13.92;64.62
74627;BME280;63132;52.268;5.192;2024-03-22T05:34:12;101597.00;;;13.74;65.39
74627;BME280;63132;52.268;5.192;2024-03-22T05:36:38;101588.63;;;13.77;64.80
74627;BME280;63132;52.268;5.192;2024-03-22T05:39:03;101587.41;;;13.85;65.51
74627;BME280;63132;52.268;5.192;2024-03-22T05:41:29;101586.44;;;14.10;64.32
74627;BME280;63132;52.268;5.192;2024-03-22T05:43:54;101588.50;;;13.99;64.52
74627;BME280;63132;52.268;5.192;2024-03-22T05:46:19;101580.19;;;13.95;65.10
74627;BME280;63132;52.268;5.192;2024-03-22T05:48:45;101579.53;;;13.73;65.62
74627;BME280;63132;52.268;5.192;2024-03-22T05:51:10;101581.47;;;13.80;65.24
74627;BME280;63132;52.268;5.192;2024-03-22T05:53:35;101576.09;;;14.10;64.33
74627;BME280;63132;52.268;5.192;2024-03-22T05:56:00;101571.19;;;14.25;63.67
74627;BME280;63132;52.268;5.192;2024-03-22T05:58:26;101574.97;;;14.01;64.23
74627;BME280;63132;52.268;5.192;2024-03-22T06:00:51;101569.69;;;14.13;64.01
74627;BME280;63132;52.268;5.192;2024-03-22T06:03:18;101572.88;;;14.12;63.89
74627;BME280;63132;52.268;5.192;2024-03-22T06:05:43;101569.03;;;14.47;62.80
74627;BME280;63132;52.268;5.192;2024-03-22T06:08:08;101565.63;;;14.66;62.38
74627;BME280;63132;52.268;5.192;2024-03-22T06:10:34;101568.34;;;14.77;62.13
74627;BME280;63132;52.268;5.192;2024-03-22T06:12:59;101562.28;;;14.41;62.90
74627;BME280;63132;52.268;5.192;2024-03-22T06:15:24;101573.13;;;14.73;62.04
74627;BME280;63132;52.268;5.192;2024-03-22T06:17:50;101566.13;;;14.58;62.26
74627;BME280;63132;52.268;5.192;2024-03-22T06:20:15;101570.44;;;14.66;62.40
74627;BME280;63132;52.268;5.192;2024-03-22T06:22:40;101561.41;;;14.55;62.41
74627;BME280;63132;52.268;5.192;2024-03-22T06:25:06;101559.09;;;14.43;62.65
74627;BME280;63132;52.268;5.192;2024-03-22T06:27:31;101560.34;;;14.79;61.97
74627;BME280;63132;52.268;5.192;2024-03-22T06:29:56;101559.25;;;14.70;61.80
74627;BME280;63132;52.268;5.192;2024-03-22T06:32:22;101564.84;;;14.66;61.66
74627;BME280;63132;52.268;5.192;2024-03-22T06:34:47;101550.31;;;14.85;61.41
74627;BME280;63132;52.268;5.192;2024-03-22T06:37:12;101563.41;;;14.88;61.04
74627;BME280;63132;52.268;5.192;2024-03-22T06:39:38;101560.97;;;14.94;60.53
74627;BME280;63132;52.268;5.192;2024-03-22T06:42:03;101566.13;;;14.58;62.10
74627;BME280;63132;52.268;5.192;2024-03-22T06:44:29;101567.00;;;15.23;59.90
74627;BME280;63132;52.268;5.192;2024-03-22T06:46:54;101564.03;;;15.03;60.49
74627;BME280;63132;52.268;5.192;2024-03-22T06:49:19;101566.53;;;14.94;60.52
74627;BME280;63132;52.268;5.192;2024-03-22T06:51:45;101560.81;;;15.08;60.03
74627;BME280;63132;52.268;5.192;2024-03-22T06:54:10;101568.03;;;15.02;59.63
74627;BME280;63132;52.268;5.192;2024-03-22T06:56:35;101559.66;;;15.06;59.73
74627;BME280;63132;52.268;5.192;2024-03-22T06:59:00;101557.50;;;15.17;59.22
74627;BME280;63132;52.268;5.192;2024-03-22T07:01:26;101563.94;;;15.14;59.48
74627;BME280;63132;52.268;5.192;2024-03-22T07:03:51;101559.31;;;15.31;59.27
74627;BME280;63132;52.268;5.192;2024-03-22T07:06:18;101552.97;;;15.27;59.03
74627;BME280;63132;52.268;5.192;2024-03-22T07:08:43;101558.69;;;14.85;60.37
74627;BME280;63132;52.268;5.192;2024-03-22T07:11:09;101550.06;;;15.37;59.02
74627;BME280;63132;52.268;5.192;2024-03-22T07:13:34;101556.28;;;15.18;59.54
74627;BME280;63132;52.268;5.192;2024-03-22T07:16:00;101560.66;;;15.19;59.44
74627;BME280;63132;52.268;5.192;2024-03-22T07:18:25;101560.56;;;15.26;59.17
74627;BME280;63132;52.268;5.192;2024-03-22T07:20:51;101558.72;;;15.16;59.76
74627;BME280;63132;52.268;5.192;2024-03-22T07:23:16;101555.66;;;15.37;59.58
74627;BME280;63132;52.268;5.192;2024-03-22T07:25:42;101558.19;;;14.94;60.49
74627;BME280;63132;52.268;5.192;2024-03-22T07:28:11;101567.50;;;14.80;60.97
74627;BME280;63132;52.268;5.192;2024-03-22T07:30:36;101562.06;;;14.66;62.01
74627;BME280;63132;52.268;5.192;2024-03-22T07:33:02;101572.19;;;14.87;61.28
74627;BME280;63132;52.268;5.192;2024-03-22T07:35:28;101560.47;;;14.65;61.64
74627;BME280;63132;52.268;5.192;2024-03-22T07:37:53;101564.91;;;14.96;61.22
74627;BME280;63132;52.268;5.192;2024-03-22T07:40:18;101571.13;;;14.74;61.41
74627;BME280;63132;52.268;5.192;2024-03-22T07:42:45;101558.69;;;14.82;61.63
74627;BME280;63132;52.268;5.192;2024-03-22T07:45:10;101569.91;;;14.78;61.96
74627;BME280;63132;52.268;5.192;2024-03-22T07:47:36;101571.22;;;14.66;61.61
74627;BME280;63132;52.268;5.192;2024-03-22T07:50:02;101564.28;;;14.82;61.83
74627;BME280;63132;52.268;5.192;2024-03-22T07:52:28;101567.84;;;14.86;61.57
74627;BME280;63132;52.268;5.192;2024-03-22T07:54:53;101570.78;;;14.27;63.72
74627;BME280;63132;52.268;5.192;2024-03-22T07:57:18;101562.63;;;14.88;62.40
74627;BME280;63132;52.268;5.192;2024-03-22T07:59:45;101562.53;;;14.95;61.98
74627;BME280;63132;52.268;5.192;2024-03-22T08:02:10;101565.53;;;14.77;62.77
74627;BME280;63132;52.268;5.192;2024-03-22T08:04:36;101563.00;;;14.52;63.58
74627;BME280;63132;52.268;5.192;2024-03-22T08:07:01;101568.63;;;14.49;64.37
74627;BME280;63132;52.268;5.192;2024-03-22T08:09:26;101565.00;;;14.52;64.64
74627;BME280;63132;52.268;5.192;2024-03-22T08:11:52;101562.97;;;14.56;64.08
74627;BME280;63132;52.268;5.192;2024-03-22T08:14:17;101566.06;;;14.65;63.76
74627;BME280;63132;52.268;5.192;2024-03-22T08:16:42;101564.47;;;15.02;62.84
74627;BME280;63132;52.268;5.192;2024-03-22T08:19:08;101566.00;;;15.06;62.80
74627;BME280;63132;52.268;5.192;2024-03-22T08:21:33;101566.47;;;14.63;63.70
74627;BME280;63132;52.268;5.192;2024-03-22T08:23:59;101566.91;;;14.96;62.49
74627;BME280;63132;52.268;5.192;2024-03-22T08:26:25;101572.03;;;15.01;62.70
74627;BME280;63132;52.268;5.192;2024-03-22T08:28:50;101570.66;;;15.16;62.03
74627;BME280;63132;52.268;5.192;2024-03-22T08:31:15;101571.78;;;14.51;64.21
74627;BME280;63132;52.268;5.192;2024-03-22T08:33:42;101569.69;;;14.58;63.99
74627;BME280;63132;52.268;5.192;2024-03-22T08:36:07;101566.34;;;14.74;64.54
74627;BME280;63132;52.268;5.192;2024-03-22T08:38:32;101563.97;;;14.76;65.00
74627;BME280;63132;52.268;5.192;2024-03-22T08:40:58;101556.59;;;14.55;65.46
74627;BME280;63132;52.268;5.192;2024-03-22T08:43:23;101561.91;;;14.80;64.62
74627;BME280;63132;52.268;5.192;2024-03-22T08:45:51;101564.41;;;14.71;64.40
74627;BME280;63132;52.268;5.192;2024-03-22T08:48:16;101564.47;;;14.64;65.51
74627;BME280;63132;52.268;5.192;2024-03-22T08:50:43;101553.63;;;14.28;66.45
74627;BME280;63132;52.268;5.192;2024-03-22T08:53:08;101556.47;;;14.66;65.59
74627;BME280;63132;52.268;5.192;2024-03-22T08:55:33;101561.03;;;14.53;66.51
74627;BME280;63132;52.268;5.192;2024-03-22T08:57:58;101551.44;;;14.91;65.05
74627;BME280;63132;52.268;5.192;2024-03-22T09:00:24;101552.72;;;14.83;64.87
74627;BME280;63132;52.268;5.192;2024-03-22T09:02:49;101548.00;;;15.11;64.68
74627;BME280;63132;52.268;5.192;2024-03-22T09:05:14;101555.63;;;14.73;65.54
74627;BME280;63132;52.268;5.192;2024-03-22T09:07:40;101557.09;;;14.84;65.48
74627;BME280;63132;52.268;5.192;2024-03-22T09:10:06;101560.56;;;14.58;66.51
74627;BME280;63132;52.268;5.192;2024-03-22T09:12:31;101555.31;;;14.63;65.72
74627;BME280;63132;52.268;5.192;2024-03-22T09:14:56;101561.03;;;14.53;66.24
74627;BME280;63132;52.268;5.192;2024-03-22T09:17:22;101547.97;;;14.39;67.35
74627;BME280;63132;52.268;5.192;2024-03-22T09:19:47;101557.19;;;14.77;66.54
74627;BME280;63132;52.268;5.192;2024-03-22T09:22:13;101560.34;;;14.38;67.27
74627;BME280;63132;52.268;5.192;2024-03-22T09:24:39;101560.72;;;14.40;67.51
74627;BME280;63132;52.268;5.192;2024-03-22T09:27:04;101552.69;;;14.49;67.16
74627;BME280;63132;52.268;5.192;2024-03-22T09:29:34;101551.69;;;14.70;66.32
74627;BME280;63132;52.268;5.192;2024-03-22T09:31:59;101546.19;;;14.59;66.85
74627;BME280;63132;52.268;5.192;2024-03-22T09:34:24;101543.72;;;14.68;66.45
74627;BME280;63132;52.268;5.192;2024-03-22T09:36:49;101545.47;;;14.52;67.17
74627;BME280;63132;52.268;5.192;2024-03-22T09:39:15;101557.31;;;14.63;66.97
74627;BME280;63132;52.268;5.192;2024-03-22T09:41:43;101551.44;;;14.91;66.40
74627;BME280;63132;52.268;5.192;2024-03-22T09:44:13;101547.69;;;14.71;67.21
74627;BME280;63132;52.268;5.192;2024-03-22T09:46:42;101546.50;;;15.06;65.75
74627;BME280;63132;52.268;5.192;2024-03-22T09:49:11;101542.66;;;14.93;65.94
74627;BME280;63132;52.268;5.192;2024-03-22T09:51:37;101543.34;;;15.01;65.82
74627;BME280;63132;52.268;5.192;2024-03-22T09:54:04;101536.75;;;14.87;65.42
74627;BME280;63132;52.268;5.192;2024-03-22T09:56:31;101546.53;;;14.68;66.78
74627;BME280;63132;52.268;5.192;2024-03-22T09:58:59;101542.41;;;14.80;66.73
74627;BME280;63132;52.268;5.192;2024-03-22T10:01:25;101541.41;;;14.98;66.69
74627;BME280;63132;52.268;5.192;2024-03-22T10:03:54;101530.78;;;14.85;66.08
74627;BME280;63132;52.268;5.192;2024-03-22T10:06:20;101531.16;;;14.87;66.49
74627;BME280;63132;52.268;5.192;2024-03-22T10:08:45;101529.59;;;14.86;66.49
74627;BME280;63132;52.268;5.192;2024-03-22T10:11:11;101526.44;;;14.84;66.16
74627;BME280;63132;52.268;5.192;2024-03-22T10:13:36;101524.03;;;15.17;65.46
74627;BME280;63132;52.268;5.192;2024-03-22T10:16:02;101525.16;;;15.23;65.50
74627;BME280;63132;52.268;5.192;2024-03-22T10:18:27;101526.03;;;14.82;66.53
74627;BME280;63132;52.268;5.192;2024-03-22T10:21:02;101530.28;;;14.94;66.31
74627;BME280;63132;52.268;5.192;2024-03-22T10:23:29;101530.53;;;15.07;65.82
74627;BME280;63132;52.268;5.192;2024-03-22T10:25:57;101525.56;;;15.21;65.74
74627;BME280;63132;52.268;5.192;2024-03-22T10:28:24;101524.94;;;14.76;66.43
74627;BME280;63132;52.268;5.192;2024-03-22T10:30:50;101531.78;;;15.33;65.11
74627;BME280;63132;52.268;5.192;2024-03-22T10:33:18;101536.84;;;15.11;65.85
74627;BME280;63132;52.268;5.192;2024-03-22T10:35:44;101525.19;;;15.19;65.34
74627;BME280;63132;52.268;5.192;2024-03-22T10:38:12;101539.19;;;14.82;66.10
74627;BME280;63132;52.268;5.192;2024-03-22T10:40:39;101532.81;;;15.15;65.42
74627;BME280;63132;52.268;5.192;2024-03-22T10:43:04;101526.69;;;15.28;65.39
74627;BME280;63132;52.268;5.192;2024-03-22T10:45:29;101523.94;;;14.56;67.12
74627;BME280;63132;52.268;5.192;2024-03-22T10:47:56;101527.78;;;15.34;65.33
74627;BME280;63132;52.268;5.192;2024-03-22T10:50:22;101533.69;;;14.75;66.17
74627;BME280;63132;52.268;5.192;2024-03-22T10:52:52;101518.94;;;15.39;65.96
74627;BME280;63132;52.268;5.192;2024-03-22T10:55:38;101510.44;;;15.49;64.15
74627;BME280;63132;52.268;5.192;2024-03-22T10:58:07;101522.25;;;15.30;65.05
74627;BME280;63132;52.268;5.192;2024-03-22T11:00:34;101533.78;;;15.02;65.38
74627;BME280;63132;52.268;5.192;2024-03-22T11:03:03;101515.81;;;15.06;66.39
74627;BME280;63132;52.268;5.192;2024-03-22T11:05:30;101525.59;;;15.18;65.40
74627;BME280;63132;52.268;5.192;2024-03-22T11:08:03;101521.84;;;15.01;66.98
74627;BME280;63132;52.268;5.192;2024-03-22T11:10:35;101513.00;;;15.06;66.10
74627;BME280;63132;52.268;5.192;2024-03-22T11:13:04;101510.59;;;14.74;68.17
74627;BME280;63132;52.268;5.192;2024-03-22T11:15:30;101521.03;;;15.01;67.06
74627;BME280;63132;52.268;5.192;2024-03-22T11:17:56;101511.84;;;14.70;68.09
74627;BME280;63132;52.268;5.192;2024-03-22T11:20:22;101513.81;;;15.07;66.65
74627;BME280;63132;52.268;5.192;2024-03-22T11:22:47;101509.69;;;14.84;66.95
74627;BME280;63132;52.268;5.192;2024-03-22T11:25:13;101502.72;;;15.00;66.47
74627;BME280;63132;52.268;5.192;2024-03-22T11:27:38;101512.84;;;14.86;66.45
74627;BME280;63132;52.268;5.192;2024-03-22T11:30:04;101498.41;;;14.95;66.92
74627;BME280;63132;52.268;5.192;2024-03-22T11:32:29;101505.28;;;15.17;66.05
74627;BME280;63132;52.268;5.192;2024-03-22T11:34:55;101498.81;;;14.93;67.33
74627;BME280;63132;52.268;5.192;2024-03-22T11:37:21;101492.03;;;14.94;66.92
74627;BME280;63132;52.268;5.192;2024-03-22T11:39:46;101490.53;;;15.17;66.38
74627;BME280;63132;52.268;5.192;2024-03-22T11:42:13;101491.50;;;15.34;65.86
74627;BME280;63132;52.268;5.192;2024-03-22T11:44:39;101486.19;;;15.43;65.66
74627;BME280;63132;52.268;5.192;2024-03-22T11:47:05;101488.88;;;15.23;66.04
74627;BME280;63132;52.268;5.192;2024-03-22T11:49:30;101491.66;;;15.23;66.09
74627;BME280;63132;52.268;5.192;2024-03-22T11:51:56;101482.97;;;15.17;65.83
74627;BME280;63132;52.268;5.192;2024-03-22T11:54:22;101482.69;;;15.08;65.66
74627;BME280;63132;52.268;5.192;2024-03-22T11:56:48;101487.13;;;15.33;65.16
74627;BME280;63132;52.268;5.192;2024-03-22T11:59:14;101471.91;;;15.10;66.45
74627;BME280;63132;52.268;5.192;2024-03-22T12:01:40;101486.28;;;13.40;70.82
74627;BME280;63132;52.268;5.192;2024-03-22T12:04:06;101483.69;;;14.60;68.33
74627;BME280;63132;52.268;5.192;2024-03-22T12:06:36;101480.06;;;13.81;69.78
74627;BME280;63132;52.268;5.192;2024-03-22T12:09:02;101482.22;;;13.55;71.35
74627;BME280;63132;52.268;5.192;2024-03-22T12:11:28;101485.09;;;13.45;71.73
74627;BME280;63132;52.268;5.192;2024-03-22T12:13:54;101476.91;;;13.75;71.04
74627;BME280;63132;52.268;5.192;2024-03-22T12:16:19;101475.00;;;13.65;71.28
74627;BME280;63132;52.268;5.192;2024-03-22T12:18:44;101469.28;;;13.83;71.40
74627;BME280;63132;52.268;5.192;2024-03-22T12:21:09;101472.59;;;14.16;70.98
74627;BME280;63132;52.268;5.192;2024-03-22T12:23:35;101475.06;;;14.44;69.87
74627;BME280;63132;52.268;5.192;2024-03-22T12:26:00;101473.97;;;14.34;69.44
74627;BME280;63132;52.268;5.192;2024-03-22T12:28:25;101472.84;;;13.83;69.88
74627;BME280;63132;52.268;5.192;2024-03-22T12:30:50;101465.97;;;13.99;69.44
74627;BME280;63132;52.268;5.192;2024-03-22T12:33:16;101471.63;;;14.33;69.05
74627;BME280;63132;52.268;5.192;2024-03-22T12:35:41;101473.13;;;14.37;68.02
74627;BME280;63132;52.268;5.192;2024-03-22T12:38:07;101469.56;;;14.75;68.18
74627;BME280;63132;52.268;5.192;2024-03-22T12:40:36;101459.50;;;14.84;66.66
74627;BME280;63132;52.268;5.192;2024-03-22T12:43:01;101460.50;;;14.67;66.80